createdAt,value
2018-10-18T09:46:25.113Z,74.80
2018-10-18T09:48:53.991Z,74.10
2018-10-18T09:51:22.319Z,74.00
2018-10-18T09:53:50.770Z,74.20
2018-10-18T09:56:19.188Z,73.50
2018-10-18T09:58:47.967Z,73.80
2018-10-18T10:01:21.869Z,73.20
2018-10-18T10:03:50.451Z,72.00
2018-10-18T10:06:18.756Z,72.10
2018-10-18T10:08:47.179Z,72.40
2018-10-18T10:11:16.046Z,72.80
2018-10-18T10:13:44.939Z,73.40
2018-10-18T10:16:13.710Z,74.00
2018-10-18T10:18:42.688Z,73.80
2018-10-18T10:21:11.394Z,74.00
2018-10-18T10:23:39.752Z,73.50
2018-10-18T10:26:08.202Z,73.30
2018-10-18T10:28:36.653Z,73.80
2018-10-18T10:31:05.026Z,73.70
2018-10-18T10:33:34.101Z,73.90
2018-10-18T10:36:02.245Z,73.80
2018-10-18T10:38:30.437Z,74.20
2018-10-18T10:40:59.365Z,74.40
2018-10-18T10:43:28.204Z,74.60
2018-10-18T10:45:56.616Z,75.70
2018-10-18T10:48:25.130Z,76.60
2018-10-18T10:50:53.462Z,77.60
2018-10-18T10:53:22.411Z,78.00
2018-10-18T10:55:51.450Z,78.30
2018-10-18T10:58:19.869Z,78.50
2018-10-18T11:01:21.989Z,79.50
2018-10-18T11:03:51.603Z,80.00
2018-10-18T11:06:20.014Z,80.20
2018-10-18T11:08:48.144Z,80.30
2018-10-18T11:11:17.483Z,80.20
2018-10-18T11:13:45.927Z,80.10
2018-10-18T11:16:14.267Z,80.40
2018-10-18T11:18:42.747Z,80.40
2018-10-18T11:21:12.730Z,80.80
2018-10-18T11:23:41.089Z,81.30
2018-10-18T11:26:09.526Z,81.30
2018-10-18T11:28:38.017Z,81.70
2018-10-18T11:31:06.020Z,81.80
2018-10-18T11:33:34.076Z,81.60
2018-10-18T11:36:02.573Z,81.80
2018-10-18T11:38:31.084Z,81.60
2018-10-18T11:40:59.764Z,81.70
2018-10-18T11:43:28.079Z,81.80
2018-10-18T11:45:56.754Z,82.20
2018-10-18T11:48:25.450Z,82.20
2018-10-18T11:50:53.986Z,82.30
2018-10-18T11:53:22.393Z,82.20
2018-10-18T11:55:50.839Z,82.00
2018-10-18T11:58:19.627Z,81.90
2018-10-18T12:00:48.653Z,82.00
2018-10-18T12:03:17.002Z,81.60
2018-10-18T12:05:45.668Z,81.80
2018-10-18T12:08:14.149Z,81.90
2018-10-18T12:10:42.720Z,81.90
2018-10-18T12:13:11.411Z,81.60
2018-10-18T12:15:40.107Z,81.70
2018-10-18T12:18:08.702Z,81.20
2018-10-18T12:20:38.157Z,81.10
2018-10-18T12:23:06.285Z,81.60
2018-10-18T12:25:34.828Z,81.90
2018-10-18T12:28:03.253Z,82.30
2018-10-18T12:30:31.942Z,82.40
2018-10-18T12:33:00.688Z,82.70
2018-10-18T12:35:29.324Z,82.90
2018-10-18T12:37:58.087Z,82.50
2018-10-18T12:40:26.574Z,82.90
2018-10-18T12:42:55.075Z,82.20
2018-10-18T12:45:23.384Z,82.20
2018-10-18T12:47:51.753Z,83.20
2018-10-18T12:50:20.340Z,83.60
2018-10-18T12:52:48.991Z,83.90
2018-10-18T12:55:17.692Z,83.90
2018-10-18T12:57:46.108Z,84.00
2018-10-18T13:00:14.558Z,84.00
2018-10-18T13:02:43.350Z,84.30
2018-10-18T13:05:12.004Z,84.40
2018-10-18T13:07:40.027Z,84.50
2018-10-18T13:10:09.590Z,84.90
2018-10-18T13:12:38.121Z,84.90
2018-10-18T13:15:07.435Z,85.10
2018-10-18T13:17:35.768Z,85.00
2018-10-18T13:20:04.163Z,84.90
2018-10-18T13:22:32.983Z,85.10
2018-10-18T13:25:01.388Z,85.60
2018-10-18T13:27:29.968Z,85.60
2018-10-18T13:29:58.463Z,85.80
2018-10-18T13:32:27.282Z,85.80
2018-10-18T13:34:55.276Z,85.00
2018-10-18T13:37:24.044Z,85.20
2018-10-18T13:39:52.764Z,85.40
2018-10-18T13:42:21.468Z,85.50
2018-10-18T13:44:49.482Z,85.40
2018-10-18T13:47:17.824Z,85.30
2018-10-18T13:49:46.165Z,85.20
2018-10-18T13:52:14.411Z,85.20
2018-10-18T13:54:43.053Z,85.40
2018-10-18T13:57:11.720Z,85.40
2018-10-18T13:59:51.477Z,85.30
2018-10-18T14:02:20.395Z,85.00
2018-10-18T14:04:49.224Z,85.40
2018-10-18T14:07:17.902Z,85.30
2018-10-18T14:09:46.248Z,85.50
2018-10-18T14:12:14.236Z,85.00
2018-10-18T14:14:42.880Z,85.20
2018-10-18T14:17:10.964Z,85.20
2018-10-18T14:19:39.701Z,85.40
2018-10-18T14:22:08.362Z,85.40
2018-10-18T14:24:36.696Z,85.70
2018-10-18T14:27:04.940Z,85.80
2018-10-18T14:29:33.300Z,85.40
2018-10-18T14:32:01.760Z,85.00
2018-10-18T14:34:30.583Z,84.70
2018-10-18T14:36:59.237Z,84.50
2018-10-18T14:39:27.904Z,84.40
2018-10-18T14:41:57.256Z,84.30
2018-10-18T14:44:25.823Z,84.20
2018-10-18T14:46:54.251Z,83.90
2018-10-18T14:49:23.225Z,83.90
2018-10-18T14:51:51.891Z,83.60
2018-10-18T14:54:20.539Z,83.70
2018-10-18T14:56:48.875Z,83.70
2018-10-18T14:59:17.122Z,83.80
2018-10-18T15:01:45.504Z,84.00
2018-10-18T15:04:13.962Z,83.80
2018-10-18T15:06:42.413Z,83.90
2018-10-18T15:09:11.297Z,83.70
2018-10-18T15:11:40.014Z,83.50
2018-10-18T15:14:08.842Z,83.60
2018-10-18T15:16:37.323Z,83.90
2018-10-18T15:19:05.344Z,84.20
2018-10-18T15:21:33.648Z,84.00
2018-10-18T15:24:02.052Z,84.40
2018-10-18T15:26:30.528Z,84.40
2018-10-18T15:28:59.296Z,84.20
2018-10-18T15:31:27.868Z,84.50
2018-10-18T15:33:56.554Z,84.40
2018-10-18T15:36:25.196Z,84.20
2018-10-18T15:38:53.768Z,84.20
2018-10-18T15:41:22.395Z,84.20
2018-10-18T15:43:51.158Z,84.10
2018-10-18T15:46:19.834Z,84.20
2018-10-18T15:48:48.481Z,84.00
2018-10-18T15:51:17.151Z,84.20
2018-10-18T15:53:46.112Z,84.10
2018-10-18T15:56:14.805Z,84.40
2018-10-18T15:58:43.228Z,84.60
2018-10-18T16:01:11.825Z,84.80
2018-10-18T16:03:40.189Z,84.50
2018-10-18T16:06:09.257Z,84.60
2018-10-18T16:08:38.159Z,84.20
2018-10-18T16:11:06.333Z,84.40
2018-10-18T16:13:36.570Z,84.20
2018-10-18T16:16:05.581Z,84.20
2018-10-18T16:18:34.208Z,84.00
2018-10-18T16:21:02.932Z,84.30
2018-10-18T16:23:31.420Z,84.70
2018-10-18T16:26:00.153Z,84.80
2018-10-18T16:28:28.956Z,85.00
2018-10-18T16:30:57.620Z,85.10
2018-10-18T16:33:26.315Z,85.20
2018-10-18T16:35:54.951Z,85.40
2018-10-18T16:38:23.352Z,86.00
2018-10-18T16:40:51.753Z,86.20
2018-10-18T16:43:21.536Z,86.30
2018-10-18T16:45:50.209Z,86.50
2018-10-18T16:48:18.839Z,86.90
2018-10-18T16:50:47.348Z,87.30
2018-10-18T16:53:15.336Z,88.70
2018-10-18T16:55:43.688Z,89.10
2018-10-18T16:58:11.870Z,89.40
2018-10-18T17:00:40.712Z,89.80
2018-10-18T17:03:09.042Z,90.30
2018-10-18T17:05:37.431Z,90.50
2018-10-18T17:08:05.562Z,90.80
2018-10-18T17:10:34.076Z,90.90
2018-10-18T17:13:02.872Z,91.10
2018-10-18T17:15:31.528Z,91.30
2018-10-18T17:18:00.393Z,91.30
2018-10-18T17:20:28.996Z,91.40
2018-10-18T17:22:57.501Z,91.50
2018-10-18T17:25:26.164Z,91.40
2018-10-18T17:27:54.836Z,91.40
2018-10-18T17:30:22.869Z,91.50
2018-10-18T17:32:51.357Z,91.40
2018-10-18T17:35:20.123Z,91.50
2018-10-18T17:37:48.443Z,91.50
2018-10-18T17:40:17.115Z,91.60
2018-10-18T17:42:45.183Z,91.40
2018-10-18T17:45:13.619Z,91.30
2018-10-18T17:47:42.719Z,91.00
2018-10-18T17:50:11.099Z,91.10
2018-10-18T17:52:39.206Z,91.20
2018-10-18T17:55:07.940Z,91.10
2018-10-18T17:57:36.368Z,90.80
2018-10-18T18:00:07.639Z,90.80
2018-10-18T18:02:35.849Z,90.70
2018-10-18T18:05:03.911Z,90.70
2018-10-18T18:07:31.983Z,90.40
2018-10-18T18:10:00.271Z,90.50
2018-10-18T18:12:28.479Z,90.40
2018-10-18T18:14:56.945Z,90.60
2018-10-18T18:17:25.000Z,90.20
2018-10-18T18:19:53.376Z,90.30
2018-10-18T18:22:21.772Z,90.10
2018-10-18T18:24:50.104Z,90.30
2018-10-18T18:27:18.407Z,90.00
2018-10-18T18:29:47.074Z,89.90
2018-10-18T18:32:15.445Z,90.10
2018-10-18T18:34:44.190Z,89.80
2018-10-18T18:37:12.891Z,89.50
2018-10-18T18:39:41.581Z,89.40
2018-10-18T18:42:09.938Z,89.40
2018-10-18T18:44:38.596Z,89.70
2018-10-18T18:47:06.632Z,89.40
2018-10-18T18:49:35.289Z,89.50
2018-10-18T18:52:03.676Z,89.50
2018-10-18T18:54:32.848Z,89.50
2018-10-18T18:57:01.268Z,90.00
2018-10-18T18:59:29.804Z,89.10
2018-10-18T19:01:58.776Z,89.30
2018-10-18T19:04:26.838Z,88.80
2018-10-18T19:06:55.276Z,88.90
2018-10-18T19:09:23.908Z,88.40
2018-10-18T19:11:52.672Z,88.70
2018-10-18T19:14:22.182Z,88.40
2018-10-18T19:16:50.320Z,88.30
2018-10-18T19:19:19.583Z,87.30
2018-10-18T19:21:48.253Z,87.10
2018-10-18T19:24:16.895Z,86.30
2018-10-18T19:26:44.977Z,85.80
2018-10-18T19:29:13.337Z,85.90
2018-10-18T19:31:42.076Z,84.80
2018-10-18T19:34:10.085Z,85.20
2018-10-18T19:36:38.670Z,84.80
2018-10-18T19:39:07.266Z,84.90
2018-10-18T19:41:35.661Z,84.90
2018-10-18T19:44:03.754Z,84.20
2018-10-18T19:46:32.299Z,84.40
2018-10-18T19:49:00.811Z,83.80
2018-10-18T19:51:29.682Z,83.60
2018-10-18T19:53:58.032Z,83.80
2018-10-18T19:56:26.438Z,83.30
2018-10-18T19:58:55.840Z,83.30
2018-10-18T20:01:24.600Z,83.20
2018-10-18T20:03:53.309Z,83.30
2018-10-18T20:06:21.703Z,83.50
2018-10-18T20:08:50.045Z,83.30
2018-10-18T20:11:18.389Z,82.90
2018-10-18T20:13:47.104Z,82.70
2018-10-18T20:16:15.430Z,82.80
2018-10-18T20:18:43.396Z,82.70
2018-10-18T20:21:12.176Z,82.70
2018-10-18T20:23:40.958Z,82.60
2018-10-18T20:26:09.502Z,82.50
2018-10-18T20:28:38.158Z,82.50
2018-10-18T20:31:06.784Z,82.30
2018-10-18T20:33:35.427Z,82.10
2018-10-18T20:36:03.750Z,82.60
2018-10-18T20:38:32.277Z,81.90
2018-10-18T20:41:00.408Z,81.60
2018-10-18T20:43:29.226Z,81.70
2018-10-18T20:45:57.297Z,81.10
2018-10-18T20:48:26.108Z,81.30
2018-10-18T20:50:54.845Z,81.00
2018-10-18T20:53:23.719Z,81.20
2018-10-18T20:55:52.052Z,80.20
2018-10-18T20:58:20.409Z,80.30
2018-10-18T21:00:49.049Z,79.70
2018-10-18T21:03:17.597Z,79.70
2018-10-18T21:05:46.015Z,79.70
2018-10-18T21:08:14.439Z,79.30
2018-10-18T21:10:43.152Z,78.70
2018-10-18T21:13:11.976Z,78.60
2018-10-18T21:15:40.442Z,78.00
2018-10-18T21:18:08.836Z,77.60
2018-10-18T21:20:37.653Z,77.20
2018-10-18T21:23:05.990Z,77.20
2018-10-18T21:25:34.573Z,76.60
2018-10-18T21:28:03.019Z,76.70
2018-10-18T21:30:32.065Z,76.60
2018-10-18T21:33:00.158Z,75.00
2018-10-18T21:35:28.689Z,75.40
2018-10-18T21:37:57.387Z,74.00
2018-10-18T21:40:25.685Z,73.90
2018-10-18T21:42:54.340Z,74.20
2018-10-18T21:45:22.501Z,74.30
2018-10-18T21:47:50.929Z,74.00
2018-10-18T21:50:19.292Z,74.40
2018-10-18T21:52:48.080Z,74.40
2018-10-18T21:55:16.796Z,74.40
2018-10-18T21:57:44.751Z,73.80
2018-10-18T22:00:13.595Z,74.20
2018-10-18T22:02:42.469Z,74.30
2018-10-18T22:05:10.828Z,74.20
2018-10-18T22:07:39.016Z,73.90
2018-10-18T22:10:06.997Z,74.10
2018-10-18T22:12:35.605Z,73.60
2018-10-18T22:15:04.131Z,73.20
2018-10-18T22:17:32.937Z,73.40
2018-10-18T22:20:01.362Z,73.50
2018-10-18T22:22:29.347Z,73.60
2018-10-18T22:24:57.680Z,73.70
2018-10-18T22:27:26.085Z,73.30
2018-10-18T22:29:54.768Z,73.60
2018-10-18T22:32:22.740Z,73.20
2018-10-18T22:34:51.453Z,73.30
2018-10-18T22:37:19.869Z,73.40
2018-10-18T22:39:48.356Z,73.40
2018-10-18T22:42:16.648Z,73.80
2018-10-18T22:44:45.341Z,73.70
2018-10-18T22:47:13.730Z,73.50
2018-10-18T22:49:42.177Z,73.90
2018-10-18T22:52:10.687Z,73.90
2018-10-18T22:54:39.368Z,73.70
2018-10-18T22:57:07.415Z,73.00
2018-10-18T22:59:36.237Z,72.60
2018-10-18T23:02:04.309Z,72.70
2018-10-18T23:04:33.271Z,72.80
2018-10-18T23:07:01.613Z,72.60
2018-10-18T23:09:29.932Z,72.30
2018-10-18T23:11:58.319Z,71.90
2018-10-18T23:14:26.392Z,71.90
2018-10-18T23:16:55.377Z,72.40
2018-10-18T23:19:24.160Z,72.80
2018-10-18T23:21:52.860Z,72.80
2018-10-18T23:24:21.544Z,73.00
2018-10-18T23:26:49.840Z,72.90
2018-10-18T23:29:18.178Z,73.30
2018-10-18T23:31:46.703Z,73.10
2018-10-18T23:34:15.075Z,73.20
2018-10-18T23:36:43.103Z,73.30
2018-10-18T23:39:11.555Z,73.30
2018-10-18T23:41:40.033Z,73.80
2018-10-18T23:44:08.333Z,73.60
2018-10-18T23:46:37.080Z,73.50
2018-10-18T23:49:05.765Z,74.10
2018-10-18T23:51:34.400Z,74.00
2018-10-18T23:54:03.059Z,74.00
2018-10-18T23:56:31.718Z,74.20
2018-10-18T23:59:00.166Z,74.00
